sensor_id;sensor_type;location;lat;lon;timestamp;P1;durP1;ratioP1;P2;durP2;ratioP2
10523;SDS011;5310;48.638;9.060;2022-08-11T02:50:04;0.60;;;0.60;;
10523;SDS011;5310;48.638;9.060;2022-08-11T03:26:01;0.70;;;0.70;;
10523;SDS011;5310;48.638;9.060;2022-08-11T04:21:41;0.80;;;0.80;;
10523;SDS011;5310;48.638;9.060;2022-08-11T04:34:36;0.80;;;0.80;;
10523;SDS011;5310;48.638;9.060;2022-08-11T04:51:43;0.60;;;0.60;;
10523;SDS011;5310;48.638;9.060;2022-08-11T05:00:55;0.70;;;0.70;;
10523;SDS011;5310;48.638;9.060;2022-08-11T05:12:26;0.80;;;0.80;;
10523;SDS011;5310;48.638;9.060;2022-08-11T05:14:56;0.60;;;0.60;;
10523;SDS011;5310;48.638;9.060;2022-08-11T05:17:48;0.50;;;0.50;;
10523;SDS011;5310;48.638;9.060;2022-08-11T05:20:49;0.70;;;0.70;;
10523;SDS011;5310;48.638;9.060;2022-08-11T05:23:38;0.60;;;0.60;;
10523;SDS011;5310;48.638;9.060;2022-08-11T05:26:23;0.60;;;0.60;;
10523;SDS011;5310;48.638;9.060;2022-08-11T05:32:35;0.70;;;0.70;;
10523;SDS011;5310;48.638;9.060;2022-08-11T05:35:26;0.40;;;0.40;;
10523;SDS011;5310;48.638;9.060;2022-08-11T05:37:52;0.60;;;0.60;;
10523;SDS011;5310;48.638;9.060;2022-08-11T05:40:38;0.50;;;0.50;;
10523;SDS011;5310;48.638;9.060;2022-08-11T05:43:29;0.60;;;0.60;;
10523;SDS011;5310;48.638;9.060;2022-08-11T05:46:13;0.57;;;0.57;;
10523;SDS011;5310;48.638;9.060;2022-08-11T05:48:58;0.50;;;0.50;;
10523;SDS011;5310;48.638;9.060;2022-08-11T05:51:43;0.60;;;0.60;;
10523;SDS011;5310;48.638;9.060;2022-08-11T05:54:28;0.50;;;0.50;;
10523;SDS011;5310;48.638;9.060;2022-08-11T06:00:08;0.50;;;0.50;;
10523;SDS011;5310;48.638;9.060;2022-08-11T06:05:34;0.40;;;0.40;;
10523;SDS011;5310;48.638;9.060;2022-08-11T06:08:01;0.50;;;0.50;;
10523;SDS011;5310;48.638;9.060;2022-08-11T06:10:28;0.40;;;0.40;;
10523;SDS011;5310;48.638;9.060;2022-08-11T06:15:25;0.40;;;0.40;;
10523;SDS011;5310;48.638;9.060;2022-08-11T06:17:51;0.40;;;0.40;;
10523;SDS011;5310;48.638;9.060;2022-08-11T06:20:18;0.50;;;0.50;;
10523;SDS011;5310;48.638;9.060;2022-08-11T06:22:44;0.30;;;0.30;;
10523;SDS011;5310;48.638;9.060;2022-08-11T06:25:20;0.40;;;0.40;;
10523;SDS011;5310;48.638;9.060;2022-08-11T06:27:52;0.40;;;0.40;;
10523;SDS011;5310;48.638;9.060;2022-08-11T06:30:32;0.40;;;0.40;;
10523;SDS011;5310;48.638;9.060;2022-08-11T06:33:10;0.40;;;0.40;;
10523;SDS011;5310;48.638;9.060;2022-08-11T06:35:46;0.30;;;0.30;;
10523;SDS011;5310;48.638;9.060;2022-08-11T06:38:27;0.30;;;0.30;;
10523;SDS011;5310;48.638;9.060;2022-08-11T06:44:08;0.30;;;0.30;;
10523;SDS011;5310;48.638;9.060;2022-08-11T06:46:43;0.40;;;0.40;;
10523;SDS011;5310;48.638;9.060;2022-08-11T06:49:12;0.30;;;0.30;;
10523;SDS011;5310;48.638;9.060;2022-08-11T06:52:02;0.30;;;0.30;;
10523;SDS011;5310;48.638;9.060;2022-08-11T06:54:29;0.20;;;0.20;;
10523;SDS011;5310;48.638;9.060;2022-08-11T06:57:00;0.30;;;0.30;;
10523;SDS011;5310;48.638;9.060;2022-08-11T06:59:46;0.30;;;0.30;;
10523;SDS011;5310;48.638;9.060;2022-08-11T07:02:32;0.30;;;0.30;;
10523;SDS011;5310;48.638;9.060;2022-08-11T07:14:07;0.30;;;0.30;;
10523;SDS011;5310;48.638;9.060;2022-08-11T07:16:54;0.30;;;0.30;;
10523;SDS011;5310;48.638;9.060;2022-08-11T23:23:16;0.30;;;0.30;;
